createdAt,value
2022-09-24T00:02:04.598Z,6.08
2022-09-24T00:04:32.633Z,6.02
2022-09-24T00:07:00.576Z,5.96
2022-09-24T00:09:28.513Z,5.94
2022-09-24T00:11:56.503Z,5.90
2022-09-24T00:14:24.380Z,5.87
2022-09-24T00:16:52.449Z,5.83
2022-09-24T00:19:21.079Z,5.79
2022-09-24T00:21:49.086Z,5.77
2022-09-24T00:24:36.569Z,5.72
2022-09-24T00:27:06.199Z,5.68
2022-09-24T00:29:35.624Z,5.64
2022-09-24T00:32:05.694Z,5.59
2022-09-24T00:34:34.322Z,5.56
2022-09-24T00:37:02.394Z,5.50
2022-09-24T00:39:30.414Z,5.44
2022-09-24T00:41:59.410Z,5.40
2022-09-24T00:44:45.889Z,5.36
2022-09-24T00:47:18.797Z,5.36
2022-09-24T00:49:49.918Z,5.29
2022-09-24T00:52:19.868Z,5.28
2022-09-24T00:54:50.133Z,5.28
2022-09-24T00:57:18.578Z,5.23
2022-09-24T00:59:46.855Z,5.23
2022-09-24T01:02:15.167Z,5.21
2022-09-24T01:04:43.930Z,5.15
2022-09-24T01:07:12.217Z,5.11
2022-09-24T01:09:40.437Z,5.09
2022-09-24T01:12:20.269Z,5.09
2022-09-24T01:15:02.356Z,5.08
2022-09-24T01:17:52.412Z,5.07
2022-09-24T01:20:28.586Z,5.04
2022-09-24T01:23:17.490Z,5.01
2022-09-24T01:25:45.374Z,4.98
2022-09-24T01:28:20.033Z,4.92
2022-09-24T01:30:52.806Z,4.90
2022-09-24T01:33:22.869Z,4.88
2022-09-24T01:35:55.719Z,4.86
2022-09-24T01:38:34.955Z,4.83
2022-09-24T01:41:04.681Z,4.80
2022-09-24T01:43:33.101Z,4.76
2022-09-24T01:46:06.557Z,4.72
2022-09-24T01:48:37.835Z,4.66
2022-09-24T01:51:14.330Z,4.60
2022-09-24T01:53:48.874Z,4.57
2022-09-24T01:56:28.445Z,4.54
2022-09-24T01:59:17.170Z,4.52
2022-09-24T02:01:56.565Z,4.47
2022-09-24T02:04:27.972Z,4.44
2022-09-24T02:07:01.992Z,4.43
2022-09-24T02:09:34.679Z,4.40
2022-09-24T02:12:10.652Z,4.38
2022-09-24T02:14:48.618Z,4.34
2022-09-24T02:17:17.625Z,4.33
2022-09-24T02:19:47.019Z,4.31
2022-09-24T02:22:15.523Z,4.31
2022-09-24T02:24:45.934Z,4.31
2022-09-24T02:27:14.029Z,4.33
2022-09-24T02:29:41.933Z,4.33
2022-09-24T02:32:13.880Z,4.34
2022-09-24T02:34:49.773Z,4.34
2022-09-24T02:37:18.035Z,4.33
2022-09-24T02:39:45.935Z,4.30
2022-09-24T02:42:15.949Z,4.28
2022-09-24T02:44:44.006Z,4.27
2022-09-24T02:47:12.047Z,4.26
2022-09-24T02:49:40.272Z,4.26
2022-09-24T02:52:08.267Z,4.25
2022-09-24T02:54:38.731Z,4.22
2022-09-24T02:57:06.734Z,4.21
2022-09-24T02:59:34.844Z,4.20
2022-09-24T03:02:02.977Z,4.19
2022-09-24T03:04:31.873Z,4.16
2022-09-24T03:06:59.767Z,4.12
2022-09-24T03:09:27.717Z,4.12
2022-09-24T03:11:57.473Z,4.14
2022-09-24T03:14:26.364Z,4.12
2022-09-24T03:16:54.345Z,4.11
2022-09-24T03:19:22.238Z,4.10
2022-09-24T03:21:50.182Z,4.08
2022-09-24T03:24:18.130Z,4.04
2022-09-24T03:26:46.036Z,4.02
2022-09-24T03:29:14.017Z,4.02
2022-09-24T03:31:42.735Z,3.98
2022-09-24T03:34:10.774Z,3.94
2022-09-24T03:36:39.562Z,3.92
2022-09-24T03:39:07.574Z,3.89
2022-09-24T03:41:35.514Z,3.84
2022-09-24T03:44:03.548Z,3.82
2022-09-24T03:46:31.599Z,3.80
2022-09-24T03:49:00.759Z,3.78
2022-09-24T03:51:28.705Z,3.76
2022-09-24T03:53:56.765Z,3.74
2022-09-24T03:56:24.713Z,3.70
2022-09-24T03:58:52.648Z,3.66
2022-09-24T04:01:21.870Z,3.62
2022-09-24T04:03:50.858Z,3.61
2022-09-24T04:06:24.877Z,3.59
2022-09-24T04:08:54.024Z,3.55
2022-09-24T04:11:22.577Z,3.51
2022-09-24T04:13:51.556Z,3.51
2022-09-24T04:16:19.673Z,3.52
2022-09-24T04:18:48.844Z,3.50
2022-09-24T04:21:18.240Z,3.50
2022-09-24T04:23:46.424Z,3.50
2022-09-24T04:26:15.305Z,3.52
2022-09-24T04:28:43.365Z,3.53
2022-09-24T04:31:11.464Z,3.57
2022-09-24T04:33:40.786Z,3.60
2022-09-24T04:36:09.203Z,3.61
2022-09-24T04:38:37.231Z,3.63
2022-09-24T04:41:07.557Z,3.63
2022-09-24T04:43:37.089Z,3.63
2022-09-24T04:46:06.376Z,3.66
2022-09-24T04:48:36.453Z,3.68
2022-09-24T04:51:06.439Z,3.73
2022-09-24T04:53:37.270Z,3.78
2022-09-24T04:56:06.134Z,3.83
2022-09-24T04:58:34.086Z,3.88
2022-09-24T05:01:04.147Z,3.93
2022-09-24T05:03:33.248Z,3.99
2022-09-24T05:06:02.085Z,4.03
2022-09-24T05:08:30.093Z,4.04
2022-09-24T05:11:02.144Z,4.03
2022-09-24T05:13:30.310Z,4.02
2022-09-24T05:16:01.043Z,4.03
2022-09-24T05:18:29.460Z,4.06
2022-09-24T05:20:58.103Z,4.11
2022-09-24T05:23:26.195Z,4.15
2022-09-24T05:26:13.171Z,4.20
2022-09-24T05:28:42.974Z,4.28
2022-09-24T05:31:11.051Z,4.36
2022-09-24T05:33:39.813Z,4.44
2022-09-24T05:36:07.914Z,4.50
2022-09-24T05:38:40.892Z,4.52
2022-09-24T05:41:09.789Z,4.59
2022-09-24T05:43:38.597Z,4.66
2022-09-24T05:46:08.110Z,4.76
2022-09-24T05:48:37.703Z,4.91
2022-09-24T05:51:06.401Z,5.04
2022-09-24T05:53:35.401Z,5.15
2022-09-24T05:56:03.744Z,5.25
2022-09-24T05:58:32.198Z,5.33
2022-09-24T06:01:03.285Z,5.29
2022-09-24T06:03:31.905Z,5.33
2022-09-24T06:06:02.303Z,5.28
2022-09-24T06:08:33.227Z,5.27
2022-09-24T06:11:02.948Z,5.27
2022-09-24T06:13:33.725Z,5.28
2022-09-24T06:16:04.443Z,5.32
2022-09-24T06:18:43.281Z,5.36
2022-09-24T06:21:13.777Z,5.41
2022-09-24T06:23:42.642Z,5.44
2022-09-24T06:26:12.731Z,5.51
2022-09-24T06:28:42.104Z,5.55
2022-09-24T06:31:12.062Z,5.62
2022-09-24T06:33:41.140Z,5.71
2022-09-24T06:36:10.258Z,5.81
2022-09-24T06:38:40.471Z,5.99
2022-09-24T06:41:09.680Z,6.13
2022-09-24T06:43:37.977Z,6.24
2022-09-24T06:46:06.474Z,6.37
2022-09-24T06:48:34.595Z,6.50
2022-09-24T06:51:04.802Z,6.64
2022-09-24T06:53:32.799Z,6.78
2022-09-24T06:56:03.593Z,6.91
2022-09-24T06:58:31.831Z,7.03
2022-09-24T07:01:04.430Z,7.17
2022-09-24T07:03:34.253Z,7.31
2022-09-24T07:06:05.759Z,7.43
2022-09-24T07:08:34.372Z,7.50
2022-09-24T07:11:02.878Z,7.65
2022-09-24T07:13:31.997Z,7.76
2022-09-24T07:16:01.885Z,7.88
2022-09-24T07:18:30.754Z,8.01
2022-09-24T07:20:58.823Z,8.16
2022-09-24T07:23:27.990Z,8.32
2022-09-24T07:25:57.090Z,8.45
2022-09-24T07:28:25.957Z,8.60
2022-09-24T07:31:01.164Z,8.75
2022-09-24T07:33:32.636Z,8.89
2022-09-24T07:36:07.223Z,9.05
2022-09-24T07:38:36.579Z,9.21
2022-09-24T07:41:08.208Z,9.36
2022-09-24T07:43:36.235Z,9.50
2022-09-24T07:46:04.668Z,9.64
2022-09-24T07:48:33.344Z,9.78
2022-09-24T07:51:01.642Z,9.91
2022-09-24T07:53:33.948Z,10.07
2022-09-24T07:56:02.383Z,10.19
2022-09-24T07:58:31.909Z,10.34
2022-09-24T08:01:02.639Z,10.45
2022-09-24T08:03:31.651Z,10.57
2022-09-24T08:06:01.787Z,10.70
2022-09-24T08:08:30.132Z,10.84
2022-09-24T08:11:04.058Z,10.96
2022-09-24T08:13:34.580Z,11.09
2022-09-24T08:16:05.580Z,11.21
2022-09-24T08:18:34.143Z,11.21
2022-09-24T08:21:12.053Z,11.34
2022-09-24T08:23:43.598Z,11.42
2022-09-24T08:26:13.063Z,11.59
2022-09-24T08:28:42.279Z,11.68
2022-09-24T08:31:16.329Z,11.82
2022-09-24T08:33:46.411Z,11.92
2022-09-24T08:36:14.771Z,12.02
2022-09-24T08:38:45.344Z,12.11
2022-09-24T08:41:13.617Z,12.25
2022-09-24T08:44:02.638Z,12.36
2022-09-24T08:47:01.949Z,12.48
2022-09-24T08:49:56.738Z,12.65
2022-09-24T08:52:43.081Z,12.71
2022-09-24T08:55:22.719Z,12.69
2022-09-24T08:58:18.030Z,12.84
2022-09-24T09:00:59.123Z,13.08
2022-09-24T09:03:39.607Z,13.18
2022-09-24T09:06:35.837Z,13.36
2022-09-24T09:09:13.162Z,13.44
2022-09-24T09:11:46.798Z,13.40
2022-09-24T09:14:20.158Z,13.48
2022-09-24T09:17:00.938Z,13.64
2022-09-24T09:19:35.135Z,13.72
2022-09-24T09:22:14.558Z,14.05
2022-09-24T09:24:49.641Z,14.14
2022-09-24T09:27:20.178Z,14.49
2022-09-24T09:29:57.265Z,14.67
2022-09-24T09:33:16.180Z,14.74
2022-09-24T09:35:55.393Z,15.10
2022-09-24T09:38:34.574Z,15.03
2022-09-24T09:41:16.193Z,15.03
2022-09-24T09:43:46.485Z,15.00
2022-09-24T09:46:22.919Z,15.08
2022-09-24T09:48:54.384Z,15.32
2022-09-24T09:51:26.557Z,15.54
2022-09-24T09:54:05.439Z,15.34
2022-09-24T09:56:43.821Z,15.84
2022-09-24T09:59:11.772Z,15.93
2022-09-24T10:01:43.776Z,16.08
2022-09-24T10:04:28.678Z,16.21
2022-09-24T10:07:08.653Z,15.73
2022-09-24T10:09:39.540Z,15.93
2022-09-24T10:12:22.400Z,16.11
2022-09-24T10:15:02.540Z,16.08
2022-09-24T10:17:55.495Z,16.01
2022-09-24T10:20:31.475Z,16.39
2022-09-24T10:23:05.310Z,16.44
2022-09-24T10:25:37.334Z,16.47
2022-09-24T10:28:28.222Z,16.48
2022-09-24T10:31:03.642Z,16.57
2022-09-24T10:33:42.424Z,16.63
2022-09-24T10:36:22.440Z,16.10
2022-09-24T10:39:20.315Z,16.51
2022-09-24T10:41:51.237Z,16.47
2022-09-24T10:44:21.340Z,16.43
2022-09-24T10:47:01.884Z,16.38
2022-09-24T10:50:04.548Z,16.47
2022-09-24T10:52:58.182Z,16.54
2022-09-24T10:55:29.962Z,16.59
2022-09-24T10:58:16.622Z,16.81
2022-09-24T11:01:01.085Z,16.94
2022-09-24T11:03:57.891Z,17.00
2022-09-24T11:06:37.851Z,17.27
2022-09-24T11:09:20.426Z,17.33
2022-09-24T11:12:30.394Z,17.65
2022-09-24T11:15:32.950Z,18.29
2022-09-24T11:18:32.656Z,18.44
2022-09-24T11:21:21.972Z,18.14
2022-09-24T11:23:59.171Z,18.28
2022-09-24T11:27:05.341Z,17.71
2022-09-24T11:29:37.479Z,17.76
2022-09-24T11:32:33.799Z,17.45
2022-09-24T11:35:13.066Z,17.47
2022-09-24T11:37:48.296Z,17.62
2022-09-24T11:40:19.666Z,16.96
2022-09-24T11:42:51.741Z,16.89
2022-09-24T11:45:29.820Z,17.32
2022-09-24T11:48:27.654Z,18.16
2022-09-24T11:51:05.113Z,18.52
2022-09-24T11:54:06.001Z,18.69
2022-09-24T11:56:37.893Z,18.47
2022-09-24T11:59:33.659Z,17.97
2022-09-24T12:02:26.770Z,18.37
2022-09-24T12:05:15.309Z,18.55
2022-09-24T12:08:01.586Z,18.45
2022-09-24T12:10:48.904Z,18.82
2022-09-24T12:13:32.534Z,19.51
2022-09-24T12:16:26.626Z,20.04
2022-09-24T12:18:59.403Z,20.15
2022-09-24T12:21:34.695Z,20.63
2022-09-24T12:24:09.609Z,20.96
2022-09-24T12:26:39.914Z,20.98
2022-09-24T12:30:15.865Z,21.04
2022-09-24T12:32:56.266Z,20.52
2022-09-24T12:35:37.582Z,20.00
2022-09-24T12:38:23.283Z,19.75
2022-09-24T12:41:18.972Z,19.42
2022-09-24T12:43:53.819Z,19.77
2022-09-24T12:46:29.437Z,20.19
2022-09-24T12:48:59.951Z,20.52
2022-09-24T12:51:40.217Z,20.76
2022-09-24T12:54:28.529Z,21.16
2022-09-24T12:57:09.045Z,21.10
2022-09-24T12:59:50.746Z,21.00
2022-09-24T13:02:25.169Z,20.61
2022-09-24T13:05:03.049Z,21.41
2022-09-24T13:07:37.898Z,21.71
2022-09-24T13:10:18.564Z,21.68
2022-09-24T13:12:47.246Z,22.37
2022-09-24T13:15:42.280Z,22.11
2022-09-24T13:18:11.729Z,22.06
2022-09-24T13:20:49.230Z,22.68
2022-09-24T13:23:19.927Z,22.23
2022-09-24T13:26:03.854Z,21.53
2022-09-24T13:28:40.222Z,22.28
2022-09-24T13:31:22.923Z,21.97
2022-09-24T13:33:58.452Z,21.72
2022-09-24T13:36:37.797Z,21.63
2022-09-24T13:39:23.508Z,21.98
2022-09-24T13:42:20.160Z,22.08
2022-09-24T13:44:54.285Z,21.41
2022-09-24T13:47:37.583Z,21.12
2022-09-24T13:50:29.299Z,20.81
2022-09-24T13:53:32.731Z,20.70
2022-09-24T13:56:06.005Z,19.75
2022-09-24T13:58:42.736Z,19.15
2022-09-24T14:01:23.263Z,19.11
2022-09-24T14:04:23.801Z,18.69
2022-09-24T14:06:57.431Z,18.69
2022-09-24T14:09:36.403Z,18.66
2022-09-24T14:12:18.172Z,18.87
2022-09-24T14:14:51.268Z,19.40
2022-09-24T14:17:20.112Z,19.67
2022-09-24T14:19:54.573Z,20.27
2022-09-24T14:22:35.314Z,20.43
2022-09-24T14:25:20.647Z,20.27
2022-09-24T14:27:51.207Z,20.13
2022-09-24T14:30:32.583Z,20.45
2022-09-24T14:33:16.320Z,20.82
2022-09-24T14:35:49.325Z,21.09
2022-09-24T14:38:31.464Z,21.26
2022-09-24T14:41:26.531Z,20.82
2022-09-24T14:44:16.107Z,20.83
2022-09-24T14:46:53.346Z,20.76
2022-09-24T14:49:43.422Z,20.56
2022-09-24T14:52:40.365Z,20.17
2022-09-24T14:55:17.520Z,19.55
2022-09-24T14:57:49.622Z,19.54
2022-09-24T15:00:24.086Z,19.23
2022-09-24T15:03:09.410Z,19.51
2022-09-24T15:05:40.342Z,19.71
2022-09-24T15:08:28.226Z,19.50
2022-09-24T15:10:59.902Z,19.02
2022-09-24T15:13:43.386Z,18.50
2022-09-24T15:16:32.409Z,18.20
2022-09-24T15:19:08.825Z,18.25
2022-09-24T15:21:37.056Z,18.00
2022-09-24T15:24:05.322Z,17.79
2022-09-24T15:26:37.414Z,17.39
2022-09-24T15:29:07.634Z,17.28
2022-09-24T15:31:37.199Z,16.96
2022-09-24T15:34:07.900Z,16.96
2022-09-24T15:36:38.593Z,16.84
2022-09-24T15:39:07.294Z,16.59
2022-09-24T15:41:35.486Z,16.47
2022-09-24T15:44:05.955Z,16.25
2022-09-24T15:46:34.682Z,16.09
2022-09-24T15:49:03.015Z,15.78
2022-09-24T15:51:34.650Z,15.74
2022-09-24T15:54:03.049Z,15.62
2022-09-24T15:56:32.210Z,15.46
2022-09-24T15:59:00.440Z,15.22
2022-09-24T16:01:29.052Z,15.04
2022-09-24T16:03:57.138Z,14.98
2022-09-24T16:06:29.716Z,14.82
2022-09-24T16:08:57.714Z,14.69
2022-09-24T16:11:27.581Z,14.49
2022-09-24T16:13:55.769Z,14.33
2022-09-24T16:16:24.543Z,14.23
2022-09-24T16:18:54.313Z,14.11
2022-09-24T16:21:22.445Z,13.99
2022-09-24T16:23:57.025Z,13.88
2022-09-24T16:26:25.246Z,13.80
2022-09-24T16:28:53.476Z,13.71
2022-09-24T16:31:21.770Z,13.60
2022-09-24T16:33:49.987Z,13.57
2022-09-24T16:36:21.168Z,13.51
2022-09-24T16:38:49.854Z,13.44
2022-09-24T16:41:18.455Z,13.35
2022-09-24T16:43:47.720Z,13.25
2022-09-24T16:46:20.383Z,13.22
2022-09-24T16:48:50.746Z,13.17
2022-09-24T16:51:19.394Z,13.11
2022-09-24T16:53:49.006Z,13.03
2022-09-24T16:56:21.783Z,12.98
2022-09-24T16:58:50.505Z,12.92
2022-09-24T17:01:20.675Z,12.88
2022-09-24T17:03:53.839Z,12.85
2022-09-24T17:06:28.041Z,12.82
2022-09-24T17:09:15.328Z,12.77
2022-09-24T17:11:45.304Z,12.75
2022-09-24T17:14:14.611Z,12.70
2022-09-24T17:16:44.236Z,12.65
2022-09-24T17:19:13.359Z,12.60
2022-09-24T17:21:46.046Z,12.56
2022-09-24T17:24:21.527Z,12.50
2022-09-24T17:26:52.163Z,12.44
2022-09-24T17:29:30.461Z,12.39
2022-09-24T17:32:00.662Z,12.34
2022-09-24T17:34:35.854Z,12.28
2022-09-24T17:37:04.345Z,12.22
2022-09-24T17:39:34.596Z,12.10
2022-09-24T17:42:04.066Z,12.04
2022-09-24T17:44:32.484Z,12.00
2022-09-24T17:47:00.757Z,11.96
2022-09-24T17:49:28.990Z,11.88
2022-09-24T17:52:01.328Z,11.76
2022-09-24T17:54:29.690Z,11.71
2022-09-24T17:56:57.794Z,11.66
2022-09-24T17:59:27.176Z,11.60
2022-09-24T18:01:55.772Z,11.55
2022-09-24T18:04:27.261Z,11.49
2022-09-24T18:06:55.358Z,11.45
2022-09-24T18:09:23.612Z,11.40
2022-09-24T18:11:53.182Z,11.35
2022-09-24T18:14:23.296Z,11.30
2022-09-24T18:16:53.695Z,11.21
2022-09-24T18:19:23.180Z,11.14
2022-09-24T18:21:51.768Z,11.05
2022-09-24T18:24:20.119Z,10.95
2022-09-24T18:26:51.576Z,10.87
2022-09-24T18:29:21.714Z,10.78
2022-09-24T18:31:51.894Z,10.70
2022-09-24T18:34:20.236Z,10.62
2022-09-24T18:36:49.800Z,10.55
2022-09-24T18:39:24.806Z,10.49
2022-09-24T18:41:56.504Z,10.41
2022-09-24T18:44:24.705Z,10.37
2022-09-24T18:46:52.939Z,10.36
2022-09-24T18:49:21.175Z,10.32
2022-09-24T18:51:52.147Z,10.28
2022-09-24T18:54:20.317Z,10.22
2022-09-24T18:56:48.681Z,10.15
2022-09-24T18:59:19.888Z,10.10
2022-09-24T19:01:50.863Z,10.06
2022-09-24T19:04:19.825Z,10.03
2022-09-24T19:06:50.799Z,10.01
2022-09-24T19:09:20.513Z,9.96
2022-09-24T19:11:49.441Z,9.91
2022-09-24T19:14:18.617Z,9.87
2022-09-24T19:16:48.347Z,9.83
2022-09-24T19:19:17.802Z,9.78
2022-09-24T19:21:50.273Z,9.75
2022-09-24T19:24:19.598Z,9.70
2022-09-24T19:26:47.782Z,9.66
2022-09-24T19:29:15.909Z,9.63
2022-09-24T19:31:46.247Z,9.58
2022-09-24T19:34:16.101Z,9.53
2022-09-24T19:36:44.880Z,9.50
2022-09-24T19:39:19.761Z,9.47
2022-09-24T19:41:53.036Z,9.41
2022-09-24T19:44:21.470Z,9.36
2022-09-24T19:46:50.526Z,9.32
2022-09-24T19:49:21.341Z,9.26
2022-09-24T19:51:49.353Z,9.23
2022-09-24T19:54:18.588Z,9.18
2022-09-24T19:56:47.099Z,9.15
2022-09-24T19:59:16.545Z,9.10
2022-09-24T20:01:44.852Z,9.05
2022-09-24T20:04:14.848Z,9.00
2022-09-24T20:06:43.001Z,8.97
2022-09-24T20:09:11.584Z,8.94
2022-09-24T20:11:39.740Z,8.92
2022-09-24T20:14:11.714Z,8.90
2022-09-24T20:16:42.862Z,8.91
2022-09-24T20:19:15.030Z,8.93
2022-09-24T20:21:43.538Z,8.91
2022-09-24T20:24:12.687Z,8.88
2022-09-24T20:26:59.461Z,8.82
2022-09-24T20:29:27.616Z,8.78
2022-09-24T20:31:58.263Z,8.73
2022-09-24T20:34:34.173Z,8.71
2022-09-24T20:37:05.803Z,8.68
2022-09-24T20:39:34.448Z,8.65
2022-09-24T20:42:04.098Z,8.63
2022-09-24T20:44:35.380Z,8.60
2022-09-24T20:47:03.760Z,8.56
2022-09-24T20:49:34.872Z,8.52
2022-09-24T20:52:05.426Z,8.47
2022-09-24T20:54:34.041Z,8.42
2022-09-24T20:57:04.578Z,8.36
2022-09-24T20:59:32.513Z,8.31
2022-09-24T21:02:03.514Z,8.30
2022-09-24T21:04:39.253Z,8.27
2022-09-24T21:07:07.900Z,8.24
2022-09-24T21:09:36.029Z,8.20
2022-09-24T21:12:04.685Z,8.19
2022-09-24T21:14:36.828Z,8.21
2022-09-24T21:17:05.417Z,8.17
2022-09-24T21:19:36.619Z,8.15
2022-09-24T21:22:07.385Z,8.13
2022-09-24T21:24:36.000Z,8.10
2022-09-24T21:27:05.405Z,8.09
2022-09-24T21:29:33.766Z,8.08
2022-09-24T21:32:02.021Z,8.07
2022-09-24T21:34:30.734Z,8.07
2022-09-24T21:36:58.772Z,8.08
2022-09-24T21:39:28.110Z,8.08
2022-09-24T21:41:59.645Z,8.05
2022-09-24T21:44:34.224Z,7.98
2022-09-24T21:47:02.253Z,7.95
2022-09-24T21:49:36.468Z,7.90
2022-09-24T21:52:06.121Z,7.84
2022-09-24T21:54:34.879Z,7.79
2022-09-24T21:57:02.832Z,7.78
2022-09-24T21:59:49.264Z,7.76
2022-09-24T22:02:18.766Z,7.73
2022-09-24T22:04:47.153Z,7.71
2022-09-24T22:07:15.365Z,7.70
2022-09-24T22:09:43.389Z,7.70
2022-09-24T22:12:12.880Z,7.69
2022-09-24T22:14:40.861Z,7.67
2022-09-24T22:17:08.824Z,7.64
2022-09-24T22:19:37.685Z,7.62
2022-09-24T22:22:05.746Z,7.61
2022-09-24T22:24:33.760Z,7.58
2022-09-24T22:27:01.698Z,7.58
2022-09-24T22:29:30.735Z,7.59
2022-09-24T22:32:01.472Z,7.59
2022-09-24T22:34:48.258Z,7.57
2022-09-24T22:37:16.223Z,7.58
2022-09-24T22:39:45.060Z,7.60
2022-09-24T22:42:14.494Z,7.61
2022-09-24T22:44:42.507Z,7.58
2022-09-24T22:47:10.962Z,7.53
2022-09-24T22:49:38.921Z,7.50
2022-09-24T22:52:08.275Z,7.48
2022-09-24T22:54:36.148Z,7.47
2022-09-24T22:57:04.233Z,7.44
2022-09-24T22:59:32.241Z,7.44
2022-09-24T23:02:00.289Z,7.44
2022-09-24T23:04:28.603Z,7.41
2022-09-24T23:06:56.768Z,7.39
2022-09-24T23:09:26.701Z,7.37
2022-09-24T23:11:56.674Z,7.36
2022-09-24T23:14:24.642Z,7.36
2022-09-24T23:16:52.703Z,7.37
2022-09-24T23:19:20.692Z,7.38
2022-09-24T23:21:49.680Z,7.41
2022-09-24T23:24:19.966Z,7.45
2022-09-24T23:26:47.935Z,7.50
2022-09-24T23:29:15.901Z,7.54
2022-09-24T23:31:45.096Z,7.58
2022-09-24T23:34:14.186Z,7.62
2022-09-24T23:36:45.373Z,7.62
2022-09-24T23:39:14.080Z,7.61
2022-09-24T23:41:42.498Z,7.62
2022-09-24T23:44:10.836Z,7.66
2022-09-24T23:46:39.560Z,7.69
2022-09-24T23:49:07.700Z,7.71
2022-09-24T23:51:36.258Z,7.73
2022-09-24T23:54:04.726Z,7.76
2022-09-24T23:56:34.314Z,7.81
2022-09-24T23:59:02.310Z,7.82
